Gulf Breeze, Florida
Current Conditions -  °F | °C
As of 9:53 AM on Sunday 21 Dec 2014 (Local Time) from KPNS Reporting Station
Overcast Overcast  
Wind Chill: 53°   Ceiling: 900
Heat Index: 53°   Visibility: 8mi
Dew Point: 52°   Wind: 8mph
Humidity: 96%   Direction: 70°ENE
Pressure: 30.1"   Gusts: NA
Location:  30.36°N, 87.17°W
Report Text: KPNS 211553Z 07007KT 8SM OVC009 12/11 A3010 RMK AO2 SLP197 T01170111
Loading
Personal Weather Stations






























Interactive Weather Map New forecast layout! Learn more

10-Day Weather Forecast

Advertisements
Track Severe Weather on mobile